sensor_id;sensor_type;location;lat;lon;timestamp;temperature;humidity
15359;DHT22;7779;49.596;11.070;2023-09-19T14:37:00;20.40;71.60
15359;DHT22;7779;49.596;11.070;2023-09-19T14:39:26;20.60;73.20
15359;DHT22;7779;49.596;11.070;2023-09-19T14:41:52;20.70;72.50
15359;DHT22;7779;49.596;11.070;2023-09-19T14:44:18;20.90;71.80
15359;DHT22;7779;49.596;11.070;2023-09-19T14:46:45;21.20;71.10
15359;DHT22;7779;49.596;11.070;2023-09-19T14:49:11;21.40;70.30
15359;DHT22;7779;49.596;11.070;2023-09-19T14:51:38;21.60;69.60
15359;DHT22;7779;49.596;11.070;2023-09-19T14:54:07;21.80;69.00
15359;DHT22;7779;49.596;11.070;2023-09-19T14:56:33;22.00;68.40
15359;DHT22;7779;49.596;11.070;2023-09-19T14:58:59;22.10;67.60
15359;DHT22;7779;49.596;11.070;2023-09-19T15:01:25;22.20;66.10
15359;DHT22;7779;49.596;11.070;2023-09-19T15:03:51;22.40;66.20
15359;DHT22;7779;49.596;11.070;2023-09-19T15:06:19;22.40;65.70
15359;DHT22;7779;49.596;11.070;2023-09-19T15:08:46;22.50;65.10
15359;DHT22;7779;49.596;11.070;2023-09-19T15:11:14;22.60;64.70
15359;DHT22;7779;49.596;11.070;2023-09-19T15:13:43;22.60;64.20
15359;DHT22;7779;49.596;11.070;2023-09-19T15:16:10;22.70;63.80
15359;DHT22;7779;49.596;11.070;2023-09-19T15:18:42;22.70;63.40
15359;DHT22;7779;49.596;11.070;2023-09-19T15:21:11;22.70;61.60
15359;DHT22;7779;49.596;11.070;2023-09-19T15:23:38;22.70;62.70
15359;DHT22;7779;49.596;11.070;2023-09-19T15:26:10;22.70;62.40
15359;DHT22;7779;49.596;11.070;2023-09-19T15:28:37;22.70;61.50
15359;DHT22;7779;49.596;11.070;2023-09-19T15:31:10;22.70;61.70
15359;DHT22;7779;49.596;11.070;2023-09-19T15:33:39;22.70;59.30
15359;DHT22;7779;49.596;11.070;2023-09-19T15:36:06;22.70;61.40
15359;DHT22;7779;49.596;11.070;2023-09-19T15:39:04;22.70;61.20
15359;DHT22;7779;49.596;11.070;2023-09-19T15:41:41;22.70;59.30
15359;DHT22;7779;49.596;11.070;2023-09-19T15:44:18;22.70;60.90
15359;DHT22;7779;49.596;11.070;2023-09-19T15:46:45;22.70;59.30
15359;DHT22;7779;49.596;11.070;2023-09-19T15:49:11;22.60;60.30
15359;DHT22;7779;49.596;11.070;2023-09-19T15:51:38;22.60;60.20
15359;DHT22;7779;49.596;11.070;2023-09-19T15:54:13;22.60;60.20
15359;DHT22;7779;49.596;11.070;2023-09-19T15:56:40;22.60;59.20
15359;DHT22;7779;49.596;11.070;2023-09-19T15:59:07;22.50;59.80
15359;DHT22;7779;49.596;11.070;2023-09-19T16:01:34;22.50;59.80
15359;DHT22;7779;49.596;11.070;2023-09-19T16:04:00;22.50;59.70
15359;DHT22;7779;49.596;11.070;2023-09-19T16:06:29;22.50;59.60
15359;DHT22;7779;49.596;11.070;2023-09-19T16:08:59;22.50;59.10
15359;DHT22;7779;49.596;11.070;2023-09-19T16:11:30;22.50;58.90
15359;DHT22;7779;49.596;11.070;2023-09-19T16:13:58;22.50;59.30
15359;DHT22;7779;49.596;11.070;2023-09-19T16:16:24;22.40;59.00
15359;DHT22;7779;49.596;11.070;2023-09-19T16:18:55;22.40;58.80
15359;DHT22;7779;49.596;11.070;2023-09-19T16:21:27;22.40;58.80
15359;DHT22;7779;49.596;11.070;2023-09-19T16:23:55;22.40;58.80
15359;DHT22;7779;49.596;11.070;2023-09-19T16:26:25;22.30;58.50
15359;DHT22;7779;49.596;11.070;2023-09-19T16:28:54;22.30;59.10
15359;DHT22;7779;49.596;11.070;2023-09-19T16:31:28;22.30;58.30
15359;DHT22;7779;49.596;11.070;2023-09-19T16:33:56;22.20;58.40
15359;DHT22;7779;49.596;11.070;2023-09-19T16:36:25;22.20;58.40
15359;DHT22;7779;49.596;11.070;2023-09-19T16:38:51;22.10;58.30
15359;DHT22;7779;49.596;11.070;2023-09-19T16:41:18;22.10;58.30
15359;DHT22;7779;49.596;11.070;2023-09-19T16:43:44;22.00;58.10
15359;DHT22;7779;49.596;11.070;2023-09-19T16:46:11;22.00;58.20
15359;DHT22;7779;49.596;11.070;2023-09-19T16:48:39;21.90;58.10
15359;DHT22;7779;49.596;11.070;2023-09-19T16:51:08;21.80;56.60
15359;DHT22;7779;49.596;11.070;2023-09-19T16:53:36;21.80;58.10
15359;DHT22;7779;49.596;11.070;2023-09-19T16:56:07;21.70;58.10
15359;DHT22;7779;49.596;11.070;2023-09-19T16:58:43;21.70;58.20
15359;DHT22;7779;49.596;11.070;2023-09-19T17:01:12;21.60;58.10
15359;DHT22;7779;49.596;11.070;2023-09-19T17:03:43;21.50;58.10
15359;DHT22;7779;49.596;11.070;2023-09-19T17:06:10;21.50;57.90
15359;DHT22;7779;49.596;11.070;2023-09-19T17:08:40;21.40;58.10
15359;DHT22;7779;49.596;11.070;2023-09-19T17:11:10;21.30;57.10
15359;DHT22;7779;49.596;11.070;2023-09-19T17:13:41;21.30;58.10
15359;DHT22;7779;49.596;11.070;2023-09-19T17:16:11;21.20;58.20
15359;DHT22;7779;49.596;11.070;2023-09-19T17:18:40;21.20;58.10
15359;DHT22;7779;49.596;11.070;2023-09-19T17:21:08;21.10;58.30
15359;DHT22;7779;49.596;11.070;2023-09-19T17:23:38;21.00;58.50
15359;DHT22;7779;49.596;11.070;2023-09-19T17:26:10;20.90;58.60
15359;DHT22;7779;49.596;11.070;2023-09-19T17:28:37;20.80;58.40
15359;DHT22;7779;49.596;11.070;2023-09-19T17:31:10;20.80;58.80
15359;DHT22;7779;49.596;11.070;2023-09-19T17:33:37;20.70;58.70
15359;DHT22;7779;49.596;11.070;2023-09-19T17:36:15;20.60;58.90
15359;DHT22;7779;49.596;11.070;2023-09-19T17:38:44;20.50;59.60
15359;DHT22;7779;49.596;11.070;2023-09-19T17:41:12;20.30;59.10
15359;DHT22;7779;49.596;11.070;2023-09-19T17:43:45;20.30;59.30
15359;DHT22;7779;49.596;11.070;2023-09-19T17:46:18;20.20;59.40
15359;DHT22;7779;49.596;11.070;2023-09-19T17:48:49;20.10;59.60
15359;DHT22;7779;49.596;11.070;2023-09-19T17:51:18;20.00;59.70
15359;DHT22;7779;49.596;11.070;2023-09-19T17:53:45;19.90;59.90
15359;DHT22;7779;49.596;11.070;2023-09-19T17:56:13;19.80;60.00
15359;DHT22;7779;49.596;11.070;2023-09-19T17:58:42;19.70;60.20
15359;DHT22;7779;49.596;11.070;2023-09-19T18:01:16;19.60;60.30
15359;DHT22;7779;49.596;11.070;2023-09-19T18:03:48;19.50;60.30
15359;DHT22;7779;49.596;11.070;2023-09-19T18:06:22;19.40;60.40
15359;DHT22;7779;49.596;11.070;2023-09-19T18:08:52;19.40;60.60
15359;DHT22;7779;49.596;11.070;2023-09-19T18:11:18;19.30;60.80
15359;DHT22;7779;49.596;11.070;2023-09-19T18:13:46;19.20;61.00
15359;DHT22;7779;49.596;11.070;2023-09-19T18:16:15;19.10;61.30
15359;DHT22;7779;49.596;11.070;2023-09-19T18:18:45;19.00;61.50
15359;DHT22;7779;49.596;11.070;2023-09-19T18:21:14;18.90;61.70
15359;DHT22;7779;49.596;11.070;2023-09-19T18:23:40;18.90;61.90
15359;DHT22;7779;49.596;11.070;2023-09-19T18:26:06;18.80;62.10
15359;DHT22;7779;49.596;11.070;2023-09-19T18:28:35;18.70;62.20
15359;DHT22;7779;49.596;11.070;2023-09-19T18:31:07;18.60;62.30
15359;DHT22;7779;49.596;11.070;2023-09-19T18:33:33;18.50;62.50
15359;DHT22;7779;49.596;11.070;2023-09-19T18:36:03;18.40;62.50
15359;DHT22;7779;49.596;11.070;2023-09-19T18:38:29;18.40;62.90
15359;DHT22;7779;49.596;11.070;2023-09-19T18:40:55;18.30;62.90
15359;DHT22;7779;49.596;11.070;2023-09-19T18:43:21;18.20;63.10
15359;DHT22;7779;49.596;11.070;2023-09-19T18:45:56;18.10;63.20
15359;DHT22;7779;49.596;11.070;2023-09-19T18:48:23;18.00;63.90
15359;DHT22;7779;49.596;11.070;2023-09-19T18:50:50;18.00;63.60
15359;DHT22;7779;49.596;11.070;2023-09-19T18:53:17;17.90;63.70
15359;DHT22;7779;49.596;11.070;2023-09-19T18:55:44;17.80;63.80
15359;DHT22;7779;49.596;11.070;2023-09-19T18:58:11;17.80;64.00
15359;DHT22;7779;49.596;11.070;2023-09-19T19:00:36;17.70;64.10
15359;DHT22;7779;49.596;11.070;2023-09-19T19:03:02;17.60;64.20
15359;DHT22;7779;49.596;11.070;2023-09-19T19:05:34;17.60;64.30
15359;DHT22;7779;49.596;11.070;2023-09-19T19:08:03;17.50;64.70
15359;DHT22;7779;49.596;11.070;2023-09-19T19:10:29;17.50;64.90
15359;DHT22;7779;49.596;11.070;2023-09-19T19:12:55;17.40;64.80
15359;DHT22;7779;49.596;11.070;2023-09-19T19:15:22;17.30;65.00
15359;DHT22;7779;49.596;11.070;2023-09-19T19:17:49;17.30;65.20
15359;DHT22;7779;49.596;11.070;2023-09-19T19:20:14;17.20;65.30
15359;DHT22;7779;49.596;11.070;2023-09-19T19:22:43;17.20;65.40
15359;DHT22;7779;49.596;11.070;2023-09-19T19:25:09;17.10;65.50
15359;DHT22;7779;49.596;11.070;2023-09-19T19:27:35;17.10;65.70
15359;DHT22;7779;49.596;11.070;2023-09-19T19:30:01;17.00;66.20
15359;DHT22;7779;49.596;11.070;2023-09-19T19:32:26;17.00;65.90
15359;DHT22;7779;49.596;11.070;2023-09-19T19:34:53;16.90;65.90
15359;DHT22;7779;49.596;11.070;2023-09-19T19:37:20;16.90;66.10
15359;DHT22;7779;49.596;11.070;2023-09-19T19:39:46;16.80;66.10
15359;DHT22;7779;49.596;11.070;2023-09-19T19:42:13;16.80;66.30
15359;DHT22;7779;49.596;11.070;2023-09-19T19:44:40;16.70;66.40
15359;DHT22;7779;49.596;11.070;2023-09-19T19:47:05;16.70;66.50
15359;DHT22;7779;49.596;11.070;2023-09-19T19:49:31;16.60;66.50
15359;DHT22;7779;49.596;11.070;2023-09-19T19:51:58;16.60;66.70
15359;DHT22;7779;49.596;11.070;2023-09-19T19:54:24;16.50;66.70
15359;DHT22;7779;49.596;11.070;2023-09-19T19:56:49;16.50;66.90
15359;DHT22;7779;49.596;11.070;2023-09-19T19:59:15;16.30;66.70
15359;DHT22;7779;49.596;11.070;2023-09-19T20:01:43;16.30;67.10
15359;DHT22;7779;49.596;11.070;2023-09-19T20:04:09;16.30;67.20
15359;DHT22;7779;49.596;11.070;2023-09-19T20:06:35;16.20;67.30
15359;DHT22;7779;49.596;11.070;2023-09-19T20:09:01;16.20;67.40
15359;DHT22;7779;49.596;11.070;2023-09-19T20:11:27;16.10;67.00
15359;DHT22;7779;49.596;11.070;2023-09-19T20:13:55;16.10;67.60
15359;DHT22;7779;49.596;11.070;2023-09-19T20:16:24;16.00;67.10
15359;DHT22;7779;49.596;11.070;2023-09-19T20:18:58;16.00;67.70
15359;DHT22;7779;49.596;11.070;2023-09-19T20:21:25;15.90;67.80
15359;DHT22;7779;49.596;11.070;2023-09-19T20:23:51;15.90;67.90
15359;DHT22;7779;49.596;11.070;2023-09-19T20:26:18;15.80;67.90
15359;DHT22;7779;49.596;11.070;2023-09-19T20:31:11;15.70;67.50
15359;DHT22;7779;49.596;11.070;2023-09-19T20:33:40;15.70;68.20
15359;DHT22;7779;49.596;11.070;2023-09-19T20:36:07;15.70;68.30
15359;DHT22;7779;49.596;11.070;2023-09-19T20:38:35;15.60;68.30
15359;DHT22;7779;49.596;11.070;2023-09-19T20:41:09;15.60;69.30
15359;DHT22;7779;49.596;11.070;2023-09-19T20:43:35;15.50;68.50
15359;DHT22;7779;49.596;11.070;2023-09-19T20:46:06;15.50;68.70
15359;DHT22;7779;49.596;11.070;2023-09-19T20:48:33;15.30;68.60
15359;DHT22;7779;49.596;11.070;2023-09-19T20:51:06;15.40;69.80
15359;DHT22;7779;49.596;11.070;2023-09-19T20:53:38;15.30;69.40
15359;DHT22;7779;49.596;11.070;2023-09-19T20:56:06;15.30;68.90
15359;DHT22;7779;49.596;11.070;2023-09-19T20:58:34;15.30;69.10
15359;DHT22;7779;49.596;11.070;2023-09-19T21:01:02;15.20;69.10
15359;DHT22;7779;49.596;11.070;2023-09-19T21:03:30;15.20;69.20
15359;DHT22;7779;49.596;11.070;2023-09-19T21:06:01;15.20;69.30
15359;DHT22;7779;49.596;11.070;2023-09-19T21:08:29;15.10;69.70
15359;DHT22;7779;49.596;11.070;2023-09-19T21:13:41;15.00;69.30
15359;DHT22;7779;49.596;11.070;2023-09-19T21:16:09;15.00;69.40
15359;DHT22;7779;49.596;11.070;2023-09-19T21:18:42;14.90;69.50
15359;DHT22;7779;49.596;11.070;2023-09-19T21:21:09;14.90;70.40
15359;DHT22;7779;49.596;11.070;2023-09-19T21:23:36;14.90;69.70
15359;DHT22;7779;49.596;11.070;2023-09-19T21:26:03;14.80;69.70
15359;DHT22;7779;49.596;11.070;2023-09-19T21:28:29;14.80;69.80
15359;DHT22;7779;49.596;11.070;2023-09-19T21:31:04;14.70;69.80
15359;DHT22;7779;49.596;11.070;2023-09-19T21:33:36;14.70;70.20
15359;DHT22;7779;49.596;11.070;2023-09-19T21:36:04;14.70;70.40
15359;DHT22;7779;49.596;11.070;2023-09-19T21:38:35;14.60;70.00
15359;DHT22;7779;49.596;11.070;2023-09-19T21:41:12;14.60;70.00
15359;DHT22;7779;49.596;11.070;2023-09-19T21:43:40;14.60;70.90
15359;DHT22;7779;49.596;11.070;2023-09-19T21:46:06;14.60;70.20
15359;DHT22;7779;49.596;11.070;2023-09-19T21:48:33;14.50;70.20
15359;DHT22;7779;49.596;11.070;2023-09-19T21:50:59;14.50;70.30
15359;DHT22;7779;49.596;11.070;2023-09-19T21:53:25;14.50;70.40
15359;DHT22;7779;49.596;11.070;2023-09-19T21:55:58;14.40;70.40
15359;DHT22;7779;49.596;11.070;2023-09-19T21:58:29;14.40;71.00
15359;DHT22;7779;49.596;11.070;2023-09-19T22:00:57;14.40;70.60
15359;DHT22;7779;49.596;11.070;2023-09-19T22:03:26;14.30;70.60
15359;DHT22;7779;49.596;11.070;2023-09-19T22:05:52;14.30;70.70
15359;DHT22;7779;49.596;11.070;2023-09-19T22:08:17;14.30;70.80
15359;DHT22;7779;49.596;11.070;2023-09-19T22:10:47;14.30;70.80
15359;DHT22;7779;49.596;11.070;2023-09-19T22:13:17;14.30;71.20
15359;DHT22;7779;49.596;11.070;2023-09-19T22:15:49;14.20;71.00
15359;DHT22;7779;49.596;11.070;2023-09-19T22:18:20;14.20;70.90
15359;DHT22;7779;49.596;11.070;2023-09-19T22:20:50;14.20;71.00
15359;DHT22;7779;49.596;11.070;2023-09-19T22:23:18;14.20;71.00
15359;DHT22;7779;49.596;11.070;2023-09-19T22:25:51;14.10;71.10
15359;DHT22;7779;49.596;11.070;2023-09-19T22:28:18;14.10;71.10
15359;DHT22;7779;49.596;11.070;2023-09-19T22:30:44;14.10;71.20
15359;DHT22;7779;49.596;11.070;2023-09-19T22:33:18;14.00;71.20
15359;DHT22;7779;49.596;11.070;2023-09-19T22:35:45;14.00;71.50
15359;DHT22;7779;49.596;11.070;2023-09-19T22:38:14;14.00;71.30
15359;DHT22;7779;49.596;11.070;2023-09-19T22:40:40;14.00;71.30
15359;DHT22;7779;49.596;11.070;2023-09-19T22:43:11;13.90;71.40
15359;DHT22;7779;49.596;11.070;2023-09-19T22:45:41;13.90;71.50
15359;DHT22;7779;49.596;11.070;2023-09-19T22:48:07;13.90;71.80
15359;DHT22;7779;49.596;11.070;2023-09-19T22:50:34;13.90;71.60
15359;DHT22;7779;49.596;11.070;2023-09-19T22:53:06;13.80;71.60
15359;DHT22;7779;49.596;11.070;2023-09-19T22:55:37;13.80;71.60
15359;DHT22;7779;49.596;11.070;2023-09-19T22:58:08;13.80;72.10
15359;DHT22;7779;49.596;11.070;2023-09-19T23:00:37;13.80;71.90
15359;DHT22;7779;49.596;11.070;2023-09-19T23:03:07;13.80;71.80
15359;DHT22;7779;49.596;11.070;2023-09-19T23:05:42;13.80;71.80
15359;DHT22;7779;49.596;11.070;2023-09-19T23:08:10;13.70;71.80
15359;DHT22;7779;49.596;11.070;2023-09-19T23:10:40;12.30;70.50
15359;DHT22;7779;49.596;11.070;2023-09-19T23:13:06;13.70;72.20
15359;DHT22;7779;49.596;11.070;2023-09-19T23:15:38;13.70;72.00
15359;DHT22;7779;49.596;11.070;2023-09-19T23:18:05;13.70;72.20
15359;DHT22;7779;49.596;11.070;2023-09-19T23:20:39;13.60;71.90
15359;DHT22;7779;49.596;11.070;2023-09-19T23:23:05;13.60;71.90
15359;DHT22;7779;49.596;11.070;2023-09-19T23:25:40;13.60;71.90
15359;DHT22;7779;49.596;11.070;2023-09-19T23:28:06;13.60;72.00
15359;DHT22;7779;49.596;11.070;2023-09-19T23:30:32;13.60;72.00
15359;DHT22;7779;49.596;11.070;2023-09-19T23:32:59;13.60;72.00
15359;DHT22;7779;49.596;11.070;2023-09-19T23:35:25;13.50;72.70
15359;DHT22;7779;49.596;11.070;2023-09-19T23:37:55;13.50;72.00
15359;DHT22;7779;49.596;11.070;2023-09-19T23:40:23;13.50;72.30
15359;DHT22;7779;49.596;11.070;2023-09-19T23:42:52;13.50;72.20
15359;DHT22;7779;49.596;11.070;2023-09-19T23:45:18;13.40;72.10
15359;DHT22;7779;49.596;11.070;2023-09-19T23:47:49;13.40;72.20
15359;DHT22;7779;49.596;11.070;2023-09-19T23:50:16;13.40;73.40
15359;DHT22;7779;49.596;11.070;2023-09-19T23:52:43;13.40;72.40
15359;DHT22;7779;49.596;11.070;2023-09-19T23:55:09;13.30;72.40
15359;DHT22;7779;49.596;11.070;2023-09-19T23:57:41;13.30;72.50
